createdAt,value
2019-02-25T00:01:18.871Z,8.80
2019-02-25T00:11:20.859Z,8.80
2019-02-25T00:21:22.830Z,8.90
2019-02-25T00:31:25.584Z,9.00
2019-02-25T00:41:27.595Z,9.00
2019-02-25T00:51:29.971Z,9.00
2019-02-25T01:01:32.130Z,8.90
2019-02-25T01:11:34.295Z,8.80
2019-02-25T01:21:36.383Z,8.60
2019-02-25T01:31:38.477Z,8.50
2019-02-25T01:41:40.465Z,8.40
2019-02-25T01:51:42.698Z,8.30
2019-02-25T02:01:45.229Z,8.30
2019-02-25T02:11:47.243Z,8.30
2019-02-25T02:21:49.574Z,8.30
2019-02-25T02:31:52.023Z,8.50
2019-02-25T02:42:17.506Z,8.60
2019-02-25T02:52:19.906Z,8.40
2019-02-25T03:02:21.872Z,8.30
2019-02-25T03:12:23.899Z,8.20
2019-02-25T03:22:25.833Z,8.30
2019-02-25T03:32:27.928Z,8.30
2019-02-25T03:42:29.856Z,8.20
2019-02-25T03:52:32.371Z,8.10
2019-02-25T04:02:34.745Z,7.90
2019-02-25T04:12:36.765Z,7.80
2019-02-25T04:22:38.810Z,7.80
2019-02-25T04:32:40.765Z,7.60
2019-02-25T04:42:42.742Z,7.50
2019-02-25T04:52:44.862Z,7.50
2019-02-25T05:02:46.964Z,7.50
2019-02-25T05:12:48.963Z,7.40
2019-02-25T05:22:51.286Z,7.30
2019-02-25T05:32:53.329Z,7.30
2019-02-25T05:42:55.247Z,7.30
2019-02-25T05:52:57.203Z,7.20
2019-02-25T06:02:59.195Z,7.20
2019-02-25T06:13:01.127Z,7.10
2019-02-25T06:23:03.055Z,7.10
2019-02-25T06:33:05.182Z,7.00
2019-02-25T06:43:07.139Z,7.00
2019-02-25T06:53:09.144Z,7.10
2019-02-25T07:03:11.144Z,7.20
2019-02-25T07:13:13.138Z,7.40
2019-02-25T07:23:15.495Z,7.50
2019-02-25T07:33:17.722Z,7.60
2019-02-25T07:43:21.747Z,7.80
2019-02-25T07:53:24.773Z,7.90
2019-02-25T08:03:26.746Z,8.00
2019-02-25T08:13:28.748Z,8.20
2019-02-25T08:23:30.683Z,8.50
2019-02-25T08:33:33.013Z,8.80
2019-02-25T08:43:36.538Z,9.20
2019-02-25T08:53:38.510Z,9.40
2019-02-25T09:03:41.909Z,9.70
2019-02-25T09:13:43.487Z,9.80
2019-02-25T09:23:45.447Z,9.90
2019-02-25T09:33:47.562Z,10.30
2019-02-25T09:43:49.567Z,10.60
2019-02-25T09:53:51.542Z,11.20
2019-02-25T10:03:53.989Z,11.40
2019-02-25T10:13:56.245Z,11.60
2019-02-25T10:23:58.207Z,11.90
2019-02-25T10:34:00.258Z,11.80
2019-02-25T10:44:04.825Z,12.00
2019-02-25T10:54:06.773Z,12.20
2019-02-25T11:04:08.807Z,12.40
2019-02-25T11:14:11.399Z,12.90
2019-02-25T11:24:14.448Z,13.00
2019-02-25T11:34:17.641Z,13.40
2019-02-25T11:44:21.177Z,13.90
2019-02-25T11:54:23.663Z,14.20
2019-02-25T12:04:26.119Z,14.60
2019-02-25T12:14:28.095Z,14.50
2019-02-25T12:24:32.184Z,14.90
2019-02-25T12:34:34.367Z,15.20
2019-02-25T12:44:36.399Z,15.40
2019-02-25T12:54:38.452Z,16.10
2019-02-25T13:04:41.848Z,16.50
2019-02-25T13:14:43.853Z,17.00
2019-02-25T13:24:45.790Z,16.70
2019-02-25T13:34:48.467Z,17.00
2019-02-25T13:44:51.674Z,16.90
2019-02-25T13:54:53.832Z,17.00
2019-02-25T14:04:55.947Z,17.00
2019-02-25T14:14:58.140Z,16.90
2019-02-25T14:25:00.249Z,17.00
2019-02-25T14:35:05.192Z,16.90
2019-02-25T14:45:09.406Z,16.60
2019-02-25T14:55:13.534Z,16.30
2019-02-25T15:05:17.323Z,16.10
2019-02-25T15:15:20.288Z,15.90
2019-02-25T15:25:22.286Z,15.90
2019-02-25T15:35:26.709Z,15.60
2019-02-25T15:45:31.046Z,15.40
2019-02-25T15:55:34.815Z,15.10
2019-02-25T16:05:38.654Z,14.70
2019-02-25T16:15:41.486Z,14.70
2019-02-25T16:25:43.389Z,14.50
2019-02-25T16:35:46.141Z,14.40
2019-02-25T16:45:48.429Z,14.40
2019-02-25T16:55:51.557Z,14.00
2019-02-25T17:05:53.244Z,13.80
2019-02-25T17:15:55.335Z,13.50
2019-02-25T17:25:57.636Z,13.30
2019-02-25T17:35:59.622Z,13.00
2019-02-25T17:46:05.144Z,12.80
2019-02-25T17:56:06.136Z,12.50
2019-02-25T18:06:08.142Z,12.50
2019-02-25T18:16:11.838Z,12.80
2019-02-25T18:26:14.942Z,13.10
2019-02-25T18:36:17.194Z,13.20
2019-02-25T18:46:21.710Z,13.00
2019-02-25T18:56:25.242Z,12.80
2019-02-25T19:06:29.244Z,12.60
2019-02-25T19:16:31.763Z,12.40
2019-02-25T19:26:33.699Z,12.30
2019-02-25T19:36:36.929Z,12.30
2019-02-25T19:46:39.971Z,12.30
2019-02-25T19:56:41.964Z,12.30
2019-02-25T20:06:44.822Z,12.10
2019-02-25T20:16:48.231Z,12.10
2019-02-25T20:26:52.525Z,11.90
2019-02-25T20:36:55.434Z,11.70
2019-02-25T20:47:00.027Z,11.50
2019-02-25T20:57:02.026Z,11.30
2019-02-25T21:07:04.412Z,11.10
2019-02-25T21:17:08.042Z,11.00
2019-02-25T21:27:10.434Z,10.90
2019-02-25T21:37:12.770Z,10.80
2019-02-25T21:47:14.736Z,10.60
2019-02-25T21:57:17.018Z,10.40
2019-02-25T22:07:24.114Z,10.30
2019-02-25T22:17:24.584Z,10.20
2019-02-25T22:27:26.634Z,10.00
2019-02-25T22:37:29.257Z,10.00
2019-02-25T22:47:31.418Z,10.00
2019-02-25T22:57:33.314Z,9.90
2019-02-25T23:07:38.817Z,9.90
2019-02-25T23:17:40.013Z,9.80
2019-02-25T23:27:44.101Z,9.70
2019-02-25T23:37:49.052Z,9.70
2019-02-25T23:47:50.123Z,9.70
2019-02-25T23:57:52.428Z,9.60
